Time;durP1;ratioP1;P1;durP2;ratioP2;P2;SDS_P1;SDS_P2;PMS_P1;PMS_P2;Temp;Humidity;BMP_temperature;BMP_pressure;BME280_temperature;BME280_humidity;BME280_pressure;Samples;Min_cycle;Max_cycle;Signal;HPM_P1;HPM_P2
2022/01/17 00:01:29;;;;;;;14.37;7.30;;;5.00;99.90;;;;;;5031015;28;20176;-65
2022/01/17 00:03:55;;;;;;;11.33;6.67;;;5.00;99.90;;;;;;5034132;28;20514;-63
2022/01/17 00:06:21;;;;;;;12.40;6.50;;;5.00;99.90;;;;;;5036932;28;20217;-63
2022/01/17 00:08:48;;;;;;;14.60;8.00;;;5.00;99.90;;;;;;5034994;28;20201;-61
2022/01/17 00:11:14;;;;;;;14.67;9.07;;;5.00;99.90;;;;;;5030956;28;20185;-63
2022/01/17 00:13:41;;;;;;;18.63;8.53;;;5.10;99.90;;;;;;5031360;28;20209;-66
2022/01/17 00:21:02;;;;;;;14.67;7.30;;;5.00;99.90;;;;;;5032689;28;20642;-65
2022/01/17 00:23:28;;;;;;;8.70;5.57;;;5.00;99.90;;;;;;5032472;28;20631;-63
2022/01/17 00:25:53;;;;;;;10.60;6.20;;;5.10;99.90;;;;;;5030111;28;20333;-62
2022/01/17 00:28:19;;;;;;;11.80;5.30;;;5.10;99.90;;;;;;5034833;28;20199;-70
2022/01/17 00:30:45;;;;;;;10.37;6.33;;;5.10;99.90;;;;;;5031446;28;20184;-62
2022/01/17 00:33:11;;;;;;;14.37;7.43;;;5.10;99.90;;;;;;5031871;28;20203;-65
2022/01/17 00:35:37;;;;;;;11.80;7.30;;;5.10;99.90;;;;;;5031099;28;20351;-64
2022/01/17 00:38:03;;;;;;;16.50;7.27;;;5.10;99.90;;;;;;5030828;28;20203;-63
2022/01/17 00:40:29;;;;;;;11.23;6.67;;;5.00;99.90;;;;;;5032506;28;20184;-68
2022/01/17 00:42:55;;;;;;;13.40;8.13;;;5.10;99.90;;;;;;5029797;28;20660;-63
2022/01/17 00:45:27;;;;;;;13.20;8.00;;;5.10;99.90;;;;;;5031103;28;20188;-65
2022/01/17 00:47:57;;;;;;;14.20;7.13;;;5.10;99.90;;;;;;5031383;28;20201;-62
2022/01/17 00:50:25;;;;;;;13.20;7.20;;;5.10;99.90;;;;;;5035243;28;20503;-62
2022/01/17 00:52:51;;;;;;;13.30;6.67;;;5.10;99.90;;;;;;5036642;28;20740;-64
2022/01/17 00:55:18;;;;;;;6.50;4.03;;;5.10;99.90;;;;;;5035706;28;20699;-67
2022/01/17 00:57:43;;;;;;;20.63;7.47;;;5.10;99.90;;;;;;5039853;28;20191;-70
2022/01/17 01:00:10;;;;;;;11.50;6.87;;;5.10;99.90;;;;;;5038952;28;20631;-64
2022/01/17 01:02:37;;;;;;;15.57;8.37;;;5.10;99.90;;;;;;5033357;28;20196;-66
2022/01/17 01:05:05;;;;;;;15.17;8.00;;;5.10;99.90;;;;;;5036382;28;20195;-63
2022/01/17 01:07:31;;;;;;;10.63;6.03;;;5.10;99.90;;;;;;5037978;28;20334;-64
2022/01/17 01:10:10;;;;;;;16.67;7.93;;;5.10;99.90;;;;;;5043021;28;20870;-65
2022/01/17 01:12:40;;;;;;;12.60;6.87;;;5.10;99.90;;;;;;5042851;28;20297;-69
2022/01/17 01:15:17;;;;;;;9.30;5.63;;;5.10;99.90;;;;;;5038584;28;20317;-64
2022/01/17 01:17:50;;;;;;;12.40;7.90;;;5.20;99.90;;;;;;5037969;28;20268;-63
2022/01/17 01:28:13;;;;;;;12.83;7.80;;;5.10;99.90;;;;;;5034142;28;20756;-64
2022/01/17 01:30:43;;;;;;;11.20;7.33;;;5.10;99.90;;;;;;5036368;28;20194;-65
2022/01/17 01:33:08;;;;;;;11.87;6.50;;;5.10;99.90;;;;;;5034211;28;20181;-65
2022/01/17 01:35:43;;;;;;;12.97;6.90;;;5.10;99.90;;;;;;5035558;28;20666;-63
2022/01/17 01:38:08;;;;;;;11.60;7.40;;;5.20;99.90;;;;;;5032237;28;20255;-66
2022/01/17 01:40:35;;;;;;;11.63;7.73;;;5.20;99.90;;;;;;5035328;28;20827;-65
2022/01/17 01:43:01;;;;;;;15.77;6.70;;;5.10;99.90;;;;;;5034797;28;20174;-63
2022/01/17 01:45:27;;;;;;;11.30;6.63;;;5.10;99.90;;;;;;5034772;28;20209;-63
2022/01/17 01:47:53;;;;;;;10.53;6.57;;;5.10;99.90;;;;;;5035847;28;20190;-62
2022/01/17 01:50:19;;;;;;;11.40;7.20;;;5.10;99.90;;;;;;5035739;28;20197;-67
2022/01/17 01:52:45;;;;;;;11.77;6.97;;;5.10;99.90;;;;;;5035629;28;20279;-62
2022/01/17 01:55:14;;;;;;;9.93;6.07;;;5.10;99.90;;;;;;5034939;28;20294;-63
2022/01/17 01:57:42;;;;;;;11.13;6.50;;;5.10;99.90;;;;;;5036664;28;20204;-64
2022/01/17 02:00:09;;;;;;;8.07;5.77;;;5.10;99.90;;;;;;5034228;28;20254;-65
2022/01/17 02:02:35;;;;;;;8.30;5.60;;;5.10;99.90;;;;;;5031484;28;20240;-63
2022/01/17 02:05:02;;;;;;;10.43;6.40;;;5.10;99.90;;;;;;5032809;28;20706;-64
2022/01/17 02:07:27;;;;;;;8.60;5.63;;;5.20;99.90;;;;;;5037477;28;20232;-63
2022/01/17 02:09:53;;;;;;;12.20;6.40;;;5.10;99.90;;;;;;5036193;28;20190;-64
2022/01/17 02:12:21;;;;;;;13.00;8.27;;;5.00;99.90;;;;;;5035555;28;20599;-62
2022/01/17 02:14:50;;;;;;;10.73;7.43;;;5.00;99.90;;;;;;5034559;28;20546;-63
2022/01/17 02:17:16;;;;;;;9.57;6.33;;;5.10;99.90;;;;;;5039341;28;20185;-63
2022/01/17 02:19:45;;;;;;;10.40;5.87;;;5.10;99.90;;;;;;5042466;28;20247;-63
2022/01/17 02:22:15;;;;;;;13.73;6.97;;;5.10;99.90;;;;;;5040907;28;20183;-62
2022/01/17 02:24:40;;;;;;;10.63;6.07;;;5.10;99.90;;;;;;5041640;28;20636;-65
2022/01/17 02:27:06;;;;;;;11.83;7.63;;;5.00;99.90;;;;;;5035943;28;20193;-63
2022/01/17 02:29:32;;;;;;;12.33;7.33;;;5.00;99.90;;;;;;5038230;28;20185;-62
2022/01/17 02:31:57;;;;;;;10.80;6.13;;;5.10;99.90;;;;;;5036400;28;20204;-67
2022/01/17 02:34:23;;;;;;;11.73;6.93;;;5.10;99.90;;;;;;5041463;28;20258;-63
2022/01/17 02:36:49;;;;;;;14.30;7.10;;;5.10;99.90;;;;;;5038967;28;20208;-63
2022/01/17 02:39:15;;;;;;;11.50;6.17;;;5.10;99.90;;;;;;5034207;28;20194;-66
2022/01/17 02:41:43;;;;;;;9.27;5.57;;;5.10;99.90;;;;;;5030716;28;20195;-64
2022/01/17 02:44:10;;;;;;;10.50;6.27;;;5.10;99.90;;;;;;5033116;28;20177;-65
2022/01/17 02:46:36;;;;;;;9.73;6.07;;;5.10;99.90;;;;;;5039604;28;20542;-65
2022/01/17 02:49:04;;;;;;;9.37;6.13;;;5.20;99.90;;;;;;5035700;28;20200;-63
2022/01/17 02:51:30;;;;;;;9.07;5.60;;;5.20;99.90;;;;;;5034276;28;20245;-63
2022/01/17 02:53:56;;;;;;;8.97;5.20;;;5.20;99.90;;;;;;5033491;28;20938;-66
2022/01/17 02:56:22;;;;;;;9.17;5.50;;;5.30;99.90;;;;;;5037864;28;20542;-66
2022/01/17 02:58:48;;;;;;;9.57;5.60;;;5.20;99.90;;;;;;5035522;28;20192;-63
2022/01/17 03:01:22;;;;;;;7.87;5.63;;;5.30;99.90;;;;;;5036900;28;20734;-62
2022/01/17 03:03:49;;;;;;;8.67;6.20;;;5.30;99.90;;;;;;5035192;28;20523;-63
2022/01/17 03:06:16;;;;;;;7.50;5.20;;;5.20;99.90;;;;;;5033902;28;20226;-63
2022/01/17 03:08:43;;;;;;;9.73;5.70;;;5.20;99.90;;;;;;5039277;28;20262;-64
2022/01/17 03:11:12;;;;;;;10.03;6.33;;;5.20;99.90;;;;;;5038967;28;20180;-62
2022/01/17 03:13:39;;;;;;;7.30;5.23;;;5.20;99.90;;;;;;5033744;28;20191;-64
2022/01/17 03:16:15;;;;;;;10.33;5.87;;;5.20;99.90;;;;;;5032155;28;20208;-62
2022/01/17 03:18:44;;;;;;;10.47;6.63;;;5.20;99.90;;;;;;5033539;28;20206;-64
2022/01/17 03:21:11;;;;;;;8.40;5.60;;;5.20;99.90;;;;;;5043057;28;20315;-67
2022/01/17 03:23:39;;;;;;;7.53;4.10;;;5.20;99.90;;;;;;5034915;28;20249;-63
2022/01/17 03:26:06;;;;;;;8.67;4.63;;;5.20;99.90;;;;;;5034796;28;20187;-62
2022/01/17 03:28:32;;;;;;;8.87;5.07;;;5.20;99.90;;;;;;5032882;28;20296;-64
2022/01/17 03:30:58;;;;;;;7.00;4.33;;;5.20;99.90;;;;;;5035068;28;20691;-65
2022/01/17 03:33:25;;;;;;;6.33;4.60;;;5.20;99.90;;;;;;5031620;28;20171;-62
2022/01/17 03:35:52;;;;;;;6.23;4.90;;;5.20;99.90;;;;;;5031276;28;20236;-67
2022/01/17 03:38:22;;;;;;;8.97;5.43;;;5.20;99.90;;;;;;5032450;28;20184;-63
2022/01/17 03:40:49;;;;;;;6.70;4.37;;;5.10;99.90;;;;;;5032800;28;20564;-64
2022/01/17 03:43:16;;;;;;;9.03;5.93;;;5.10;99.90;;;;;;5038805;28;20177;-62
2022/01/17 03:45:41;;;;;;;4.50;3.47;;;5.20;99.90;;;;;;5031603;28;20203;-67
2022/01/17 03:48:07;;;;;;;6.37;4.60;;;5.20;99.90;;;;;;5039180;28;20181;-62
2022/01/17 03:50:33;;;;;;;5.17;3.90;;;5.20;99.90;;;;;;5038934;28;20236;-68
2022/01/17 03:52:59;;;;;;;9.03;5.60;;;5.20;99.90;;;;;;5039379;28;20807;-64
2022/01/17 03:55:27;;;;;;;6.10;4.20;;;5.30;99.90;;;;;;5030829;28;20306;-64
2022/01/17 03:57:52;;;;;;;5.57;4.00;;;5.30;99.90;;;;;;5036531;28;20571;-63
2022/01/17 04:00:29;;;;;;;8.53;5.77;;;5.30;99.90;;;;;;5032501;28;20178;-65
2022/01/17 04:02:55;;;;;;;7.73;5.43;;;5.30;99.90;;;;;;5033039;28;20526;-63
2022/01/17 04:05:21;;;;;;;7.73;4.90;;;5.40;99.90;;;;;;5034611;28;20223;-62
2022/01/17 04:07:47;;;;;;;8.33;5.00;;;5.40;99.90;;;;;;5034810;28;20263;-62
2022/01/17 04:10:14;;;;;;;6.50;4.83;;;5.40;99.90;;;;;;5036774;28;20264;-67
2022/01/17 04:12:40;;;;;;;7.33;5.17;;;5.40;99.90;;;;;;5031827;28;20206;-63
2022/01/17 04:15:07;;;;;;;7.33;5.40;;;5.40;99.90;;;;;;5027074;28;20208;-64
2022/01/17 04:17:34;;;;;;;7.67;4.63;;;5.40;99.90;;;;;;5034538;28;20187;-64
2022/01/17 04:20:07;;;;;;;5.17;3.90;;;5.50;99.90;;;;;;5032497;28;20255;-62
2022/01/17 04:22:36;;;;;;;4.83;3.50;;;5.50;99.90;;;;;;5031259;28;20676;-65
2022/01/17 04:25:04;;;;;;;5.77;3.93;;;5.50;99.90;;;;;;5031413;28;20188;-63
2022/01/17 04:27:29;;;;;;;7.20;3.73;;;5.50;99.90;;;;;;5028739;28;20195;-63
2022/01/17 04:29:55;;;;;;;8.17;4.67;;;5.50;99.90;;;;;;5030232;28;20193;-62
2022/01/17 04:32:21;;;;;;;6.07;3.67;;;5.60;99.90;;;;;;5032828;28;20184;-62
2022/01/17 04:34:46;;;;;;;9.20;5.10;;;5.60;99.90;;;;;;5032095;28;20232;-64
2022/01/17 04:37:14;;;;;;;5.50;3.83;;;5.60;99.90;;;;;;5032382;28;20193;-61
2022/01/17 04:39:39;;;;;;;6.53;4.20;;;5.60;99.90;;;;;;5031670;28;20189;-63
2022/01/17 04:42:12;;;;;;;3.57;3.20;;;5.60;99.90;;;;;;5031973;28;20179;-62
2022/01/17 04:47:23;;;;;;;6.13;4.13;;;5.60;99.90;;;;;;5028926;28;20199;-63
2022/01/17 04:49:49;;;;;;;7.03;4.17;;;5.70;99.90;;;;;;5035531;28;20182;-64
2022/01/17 04:52:15;;;;;;;6.63;3.80;;;5.70;99.90;;;;;;5029726;28;20191;-63
2022/01/17 04:54:42;;;;;;;5.70;3.50;;;5.70;99.90;;;;;;5033083;28;20212;-62
2022/01/17 04:57:10;;;;;;;6.63;3.90;;;5.70;99.90;;;;;;5037920;28;20190;-62
2022/01/17 04:59:36;;;;;;;6.37;3.70;;;5.70;99.90;;;;;;5039213;28;20318;-62
2022/01/17 05:02:03;;;;;;;6.70;3.83;;;5.70;99.90;;;;;;5032141;28;20245;-62
2022/01/17 05:04:29;;;;;;;7.17;3.60;;;5.70;99.90;;;;;;5063002;28;20254;-63
2022/01/17 05:06:55;;;;;;;5.10;3.57;;;5.70;99.90;;;;;;5033030;28;20187;-62
2022/01/17 05:09:20;;;;;;;6.07;3.20;;;5.70;99.90;;;;;;5031463;28;20214;-63
2022/01/17 05:11:46;;;;;;;7.73;4.30;;;5.80;99.90;;;;;;5030346;28;20277;-62
2022/01/17 05:14:12;;;;;;;5.27;3.70;;;5.70;99.90;;;;;;5035644;28;20535;-69
2022/01/17 05:16:45;;;;;;;8.63;3.37;;;5.80;99.90;;;;;;5033024;28;20287;-64
2022/01/17 05:21:55;;;;;;;5.37;2.83;;;5.80;99.90;;;;;;5031562;28;20200;-63
2022/01/17 05:24:21;;;;;;;5.57;2.87;;;5.90;99.90;;;;;;5030042;28;20869;-64
2022/01/17 05:26:47;;;;;;;4.90;2.93;;;5.90;99.90;;;;;;5028080;28;20193;-66
2022/01/17 05:29:13;;;;;;;4.63;3.53;;;6.00;99.90;;;;;;5034286;28;20233;-65
2022/01/17 05:31:39;;;;;;;3.57;2.90;;;6.10;99.90;;;;;;5030623;28;20604;-63
2022/01/17 05:34:04;;;;;;;7.43;3.63;;;6.00;99.90;;;;;;5032286;28;20267;-64
2022/01/17 05:36:30;;;;;;;5.57;3.20;;;6.00;99.90;;;;;;5032863;28;20245;-62
2022/01/17 05:38:56;;;;;;;9.53;3.17;;;6.00;99.90;;;;;;5031800;28;20640;-63
2022/01/17 05:41:22;;;;;;;6.17;3.50;;;6.00;99.90;;;;;;5034961;28;20311;-64
2022/01/17 05:43:47;;;;;;;9.23;3.87;;;6.00;99.90;;;;;;5035893;28;20210;-63
2022/01/17 05:46:13;;;;;;;8.37;3.30;;;5.90;99.90;;;;;;5036155;28;20184;-63
2022/01/17 05:48:39;;;;;;;6.17;4.00;;;5.90;99.90;;;;;;5036279;28;20183;-63
2022/01/17 05:51:04;;;;;;;5.83;3.37;;;5.90;99.90;;;;;;5033917;28;20261;-72
2022/01/17 05:53:30;;;;;;;5.50;3.23;;;5.90;99.90;;;;;;5036406;28;20655;-63
2022/01/17 05:55:56;;;;;;;4.57;2.80;;;5.90;99.90;;;;;;5034270;28;20241;-62
2022/01/17 05:58:21;;;;;;;3.60;2.43;;;6.00;99.90;;;;;;5033090;28;20265;-64
2022/01/17 06:00:47;;;;;;;5.07;2.73;;;6.00;99.90;;;;;;5040819;28;20192;-63
2022/01/17 06:03:13;;;;;;;5.67;3.10;;;6.00;99.90;;;;;;5041155;28;20532;-63
2022/01/17 06:05:39;;;;;;;4.30;3.30;;;6.00;99.90;;;;;;5033947;28;20230;-65
2022/01/17 06:08:04;;;;;;;3.90;3.17;;;6.00;99.90;;;;;;5034297;28;20601;-62
2022/01/17 06:10:30;;;;;;;4.03;2.60;;;6.00;99.90;;;;;;5033665;28;20188;-65
2022/01/17 06:12:56;;;;;;;4.50;2.83;;;6.00;99.90;;;;;;5034044;28;20182;-67
2022/01/17 06:15:22;;;;;;;5.47;3.00;;;5.90;99.90;;;;;;5033199;28;20216;-67
2022/01/17 06:17:48;;;;;;;4.60;2.60;;;5.90;99.90;;;;;;5036817;28;20543;-62
2022/01/17 06:20:14;;;;;;;7.23;3.40;;;5.90;99.90;;;;;;5034979;28;20210;-66
2022/01/17 06:22:40;;;;;;;5.40;2.73;;;5.80;99.90;;;;;;5036487;28;20176;-63
2022/01/17 06:25:06;;;;;;;5.77;3.33;;;5.70;99.90;;;;;;5036364;28;20759;-66
2022/01/17 06:27:32;;;;;;;7.07;3.37;;;5.60;99.90;;;;;;5039018;28;21010;-62
2022/01/17 06:29:59;;;;;;;6.80;4.47;;;5.60;99.90;;;;;;5037586;28;20195;-62
2022/01/17 06:32:25;;;;;;;4.03;2.97;;;5.50;99.90;;;;;;5037387;28;20562;-64
2022/01/17 06:34:51;;;;;;;3.80;2.80;;;5.50;99.90;;;;;;5035100;28;20235;-64
2022/01/17 06:37:16;;;;;;;8.47;3.60;;;5.40;99.90;;;;;;5038044;28;20200;-63
2022/01/17 06:39:42;;;;;;;6.83;3.57;;;5.50;99.90;;;;;;5033217;28;20745;-63
2022/01/17 06:42:08;;;;;;;6.20;3.23;;;5.50;99.90;;;;;;5038819;28;20197;-65
2022/01/17 06:44:34;;;;;;;3.77;2.83;;;5.60;99.90;;;;;;5040028;28;20194;-64
2022/01/17 06:47:00;;;;;;;5.83;3.70;;;5.60;99.90;;;;;;5041286;28;20278;-63
2022/01/17 06:49:25;;;;;;;6.63;3.83;;;5.60;99.90;;;;;;5034884;28;20194;-64
2022/01/17 06:51:51;;;;;;;7.23;3.70;;;5.60;99.90;;;;;;5032600;28;20223;-63
2022/01/17 06:54:17;;;;;;;8.23;3.90;;;5.70;99.90;;;;;;5032809;28;20188;-64
2022/01/17 06:56:44;;;;;;;6.23;3.70;;;5.70;99.90;;;;;;5036109;28;20230;-63
2022/01/17 06:59:13;;;;;;;7.73;3.60;;;5.70;99.90;;;;;;5034562;28;20197;-64
2022/01/17 07:01:40;;;;;;;6.13;3.33;;;5.70;99.90;;;;;;5040884;28;20193;-63
2022/01/17 07:04:06;;;;;;;5.40;3.10;;;5.70;99.90;;;;;;5040732;28;20179;-64
2022/01/17 07:06:32;;;;;;;8.40;4.10;;;5.70;99.90;;;;;;5040605;28;20208;-63
2022/01/17 07:08:57;;;;;;;6.67;3.73;;;5.70;99.90;;;;;;5040872;28;20203;-63
2022/01/17 07:11:26;;;;;;;6.20;3.43;;;5.70;99.90;;;;;;5045315;28;20210;-63
2022/01/17 07:13:52;;;;;;;5.17;2.93;;;5.70;99.90;;;;;;5045111;28;20263;-65
2022/01/17 07:16:19;;;;;;;7.40;3.30;;;5.70;99.90;;;;;;5043272;28;20219;-63
2022/01/17 07:18:44;;;;;;;5.93;3.33;;;5.70;99.90;;;;;;5044061;28;20189;-64
2022/01/17 07:21:10;;;;;;;5.53;2.83;;;5.80;99.90;;;;;;5049097;28;20192;-62
2022/01/17 07:23:36;;;;;;;4.47;3.10;;;5.70;99.90;;;;;;5043393;28;20203;-64
2022/01/17 07:26:02;;;;;;;5.10;2.60;;;5.80;99.90;;;;;;5039476;28;20848;-63
2022/01/17 07:28:28;;;;;;;6.63;3.03;;;5.70;99.90;;;;;;5041303;28;20193;-62
2022/01/17 07:30:53;;;;;;;3.13;2.33;;;5.80;99.90;;;;;;5040564;28;20185;-66
2022/01/17 07:33:21;;;;;;;7.67;2.73;;;5.80;99.90;;;;;;5039652;28;20180;-65
2022/01/17 07:35:48;;;;;;;4.33;2.40;;;5.70;99.90;;;;;;5040372;28;20263;-62
2022/01/17 07:38:14;;;;;;;5.67;2.70;;;5.80;99.90;;;;;;5038102;28;20223;-64
2022/01/17 07:40:43;;;;;;;5.40;3.03;;;5.70;99.90;;;;;;5043360;28;20194;-65
2022/01/17 07:43:10;;;;;;;5.73;2.80;;;5.70;99.90;;;;;;5038778;28;20184;-62
2022/01/17 07:45:43;;;;;;;8.20;2.93;;;5.70;99.90;;;;;;5033393;28;20187;-67
2022/01/17 07:48:23;;;;;;;2.17;1.80;;;5.80;99.90;;;;;;5036955;28;20221;-62
2022/01/17 07:50:49;;;;;;;5.87;3.20;;;5.80;99.90;;;;;;5035264;28;20184;-63
2022/01/17 07:53:16;;;;;;;4.17;2.20;;;5.70;99.90;;;;;;5035898;28;20173;-63
2022/01/17 07:55:42;;;;;;;5.00;2.40;;;5.70;99.90;;;;;;5039494;28;20225;-69
2022/01/17 07:58:08;;;;;;;4.60;3.00;;;5.70;99.90;;;;;;5035759;28;20625;-62
2022/01/17 08:00:33;;;;;;;8.60;2.77;;;5.70;99.90;;;;;;5032798;28;20178;-65
2022/01/17 08:02:59;;;;;;;4.90;2.17;;;5.60;99.90;;;;;;5036523;28;20188;-66
2022/01/17 08:05:25;;;;;;;4.93;1.90;;;5.60;99.90;;;;;;5036243;28;20214;-64
2022/01/17 08:07:51;;;;;;;6.73;2.47;;;5.60;99.90;;;;;;5033431;28;20177;-63
2022/01/17 08:10:18;;;;;;;5.53;2.70;;;5.60;99.90;;;;;;5030261;28;20201;-63
2022/01/17 08:12:46;;;;;;;5.93;2.80;;;5.50;99.90;;;;;;5049771;28;20194;-64
2022/01/17 08:15:12;;;;;;;4.67;2.43;;;5.60;99.90;;;;;;5035861;28;20736;-63
2022/01/17 08:17:39;;;;;;;5.77;2.70;;;5.50;99.90;;;;;;5040129;28;20185;-63
2022/01/17 08:20:06;;;;;;;4.37;2.50;;;5.50;99.90;;;;;;5036049;28;20195;-62
2022/01/17 08:22:31;;;;;;;8.93;3.43;;;5.50;99.90;;;;;;5033954;28;20180;-62
2022/01/17 08:24:57;;;;;;;4.30;2.50;;;5.40;99.90;;;;;;5033297;28;20199;-63
2022/01/17 08:27:23;;;;;;;3.13;2.30;;;5.40;99.90;;;;;;5035162;28;20290;-64
2022/01/17 08:29:48;;;;;;;7.77;2.93;;;5.30;99.90;;;;;;5028765;28;20696;-66
2022/01/17 08:32:14;;;;;;;5.80;2.60;;;5.30;99.90;;;;;;5034498;28;20179;-63
2022/01/17 08:34:39;;;;;;;4.30;2.30;;;5.40;99.90;;;;;;5036917;28;26523;-62
2022/01/17 08:37:05;;;;;;;4.20;2.47;;;5.20;99.90;;;;;;5033528;28;20237;-65
2022/01/17 08:39:31;;;;;;;4.53;2.67;;;5.20;99.90;;;;;;5030913;28;20636;-64
2022/01/17 08:41:58;;;;;;;4.20;2.43;;;5.10;99.90;;;;;;5031649;28;20202;-64
2022/01/17 08:44:24;;;;;;;4.23;2.20;;;5.10;99.90;;;;;;5033180;28;20187;-66
2022/01/17 08:46:50;;;;;;;9.77;2.80;;;5.10;99.90;;;;;;5032274;28;20193;-63
2022/01/17 08:49:16;;;;;;;4.70;2.37;;;5.10;99.90;;;;;;5034274;28;20195;-62
2022/01/17 08:51:43;;;;;;;3.10;1.70;;;5.10;99.90;;;;;;5032521;28;20181;-64
2022/01/17 08:54:08;;;;;;;5.97;3.00;;;5.00;99.90;;;;;;5033368;28;20214;-62
2022/01/17 08:56:34;;;;;;;5.63;2.67;;;5.00;99.90;;;;;;5038993;28;20643;-61
2022/01/17 08:59:02;;;;;;;4.53;2.50;;;5.10;99.90;;;;;;5026529;28;20180;-62
2022/01/17 09:01:28;;;;;;;6.77;2.30;;;5.10;99.90;;;;;;5027995;28;20588;-65
2022/01/17 09:03:54;;;;;;;5.47;3.07;;;5.00;99.90;;;;;;5032492;28;20321;-62
2022/01/17 09:06:23;;;;;;;4.73;2.70;;;5.00;99.90;;;;;;5032022;28;20184;-63
2022/01/17 09:08:48;;;;;;;6.87;2.63;;;5.00;99.90;;;;;;5034100;28;20194;-62
2022/01/17 09:11:14;;;;;;;7.27;2.33;;;5.00;99.90;;;;;;5033316;28;20616;-62
2022/01/17 09:13:40;;;;;;;7.43;2.90;;;5.00;99.90;;;;;;5037119;28;20216;-65
2022/01/17 09:16:06;;;;;;;5.73;2.40;;;5.00;99.90;;;;;;5041819;28;20211;-67
2022/01/17 09:18:31;;;;;;;9.17;2.77;;;5.00;99.90;;;;;;5035732;28;22325;-63
2022/01/17 09:20:57;;;;;;;10.03;2.60;;;5.00;99.90;;;;;;5032862;28;20204;-63
2022/01/17 09:23:23;;;;;;;5.53;2.60;;;4.90;99.90;;;;;;5034503;28;20504;-64
2022/01/17 09:25:49;;;;;;;7.73;2.20;;;5.00;99.90;;;;;;5037477;28;20236;-64
2022/01/17 09:28:15;;;;;;;5.67;2.57;;;5.00;99.90;;;;;;5033933;28;20177;-62
2022/01/17 09:30:41;;;;;;;4.07;2.10;;;5.00;99.90;;;;;;5034209;28;20524;-64
2022/01/17 09:33:06;;;;;;;4.07;1.70;;;5.10;99.90;;;;;;5035858;28;20183;-62
2022/01/17 09:35:33;;;;;;;4.97;2.60;;;5.10;99.90;;;;;;5038687;28;20255;-62
2022/01/17 09:37:59;;;;;;;4.07;2.27;;;5.10;99.90;;;;;;5039622;28;20188;-63
2022/01/17 09:40:26;;;;;;;6.83;2.50;;;5.10;99.90;;;;;;5044368;28;20591;-63
2022/01/17 09:42:53;;;;;;;8.03;2.73;;;5.10;99.90;;;;;;5034291;28;20186;-63
2022/01/17 09:45:21;;;;;;;8.17;2.30;;;5.20;99.90;;;;;;5036249;28;20194;-65
2022/01/17 09:47:48;;;;;;;5.30;2.60;;;5.20;99.90;;;;;;5036292;28;20197;-63
2022/01/17 09:50:20;;;;;;;6.30;2.33;;;5.20;99.90;;;;;;5036009;28;20193;-63
2022/01/17 09:52:51;;;;;;;5.13;2.10;;;5.20;99.90;;;;;;5033084;28;20170;-67
2022/01/17 09:55:21;;;;;;;8.83;2.57;;;5.20;99.90;;;;;;5037976;28;20222;-62
2022/01/17 09:58:00;;;;;;;6.70;2.53;;;5.20;99.90;;;;;;5037817;28;20655;-64
2022/01/17 10:00:29;;;;;;;6.50;2.73;;;5.30;99.90;;;;;;5036281;28;20666;-64
2022/01/17 10:03:00;;;;;;;5.83;1.90;;;5.30;99.90;;;;;;5035916;28;20200;-62
2022/01/17 10:05:27;;;;;;;7.27;2.23;;;5.30;99.90;;;;;;5036297;28;20245;-64
2022/01/17 10:08:04;;;;;;;4.60;1.90;;;5.30;99.90;;;;;;5034981;28;20182;-64
2022/01/17 10:10:45;;;;;;;13.60;2.27;;;5.40;99.90;;;;;;5033494;28;20182;-63
2022/01/17 10:13:31;;;;;;;6.13;2.47;;;5.40;99.90;;;;;;5050936;28;20194;-65
2022/01/17 10:16:00;;;;;;;3.80;1.50;;;5.40;99.90;;;;;;5032445;28;20563;-63
2022/01/17 10:18:29;;;;;;;2.37;1.60;;;5.40;99.90;;;;;;5034141;28;20609;-63
2022/01/17 10:21:00;;;;;;;3.50;1.87;;;5.40;99.90;;;;;;5036468;28;20246;-61
2022/01/17 10:24:00;;;;;;;3.67;1.60;;;5.50;99.90;;;;;;5036533;28;20180;-70
2022/01/17 10:26:36;;;;;;;4.90;1.60;;;5.50;99.90;;;;;;5033611;28;20191;-63
2022/01/17 10:35:14;;;;;;;2.93;1.90;;;5.50;99.90;;;;;;5037639;28;20318;-63
2022/01/17 10:37:40;;;;;;;5.37;1.97;;;5.60;99.90;;;;;;5036405;28;20676;-68
2022/01/17 10:40:15;;;;;;;4.20;2.17;;;5.50;99.90;;;;;;5034578;28;20238;-63
2022/01/17 10:42:47;;;;;;;2.87;1.80;;;5.50;99.90;;;;;;5035764;28;20196;-68
2022/01/17 10:45:31;;;;;;;4.47;1.33;;;5.60;99.90;;;;;;5034616;28;20202;-66
2022/01/17 10:47:58;;;;;;;1.40;1.27;;;5.70;99.90;;;;;;5041455;28;20172;-62
2022/01/17 10:50:34;;;;;;;2.53;1.53;;;5.60;99.90;;;;;;5036537;28;20182;-66
2022/01/17 10:53:06;;;;;;;3.53;1.90;;;5.60;99.90;;;;;;5034996;28;20195;-62
2022/01/17 10:55:38;;;;;;;5.40;1.90;;;5.60;99.90;;;;;;5032058;28;20295;-64
2022/01/17 10:58:11;;;;;;;6.40;1.93;;;5.60;99.90;;;;;;5033760;28;20607;-62
2022/01/17 11:00:39;;;;;;;8.73;2.40;;;5.60;99.90;;;;;;5035683;28;20192;-67
2022/01/17 11:03:11;;;;;;;6.77;1.80;;;5.60;99.90;;;;;;5041082;28;20195;-63
2022/01/17 11:05:42;;;;;;;2.63;1.33;;;5.60;99.90;;;;;;5040730;28;20172;-71
2022/01/17 11:08:08;;;;;;;3.37;1.93;;;5.60;99.90;;;;;;5043910;28;20211;-64
2022/01/17 11:10:41;;;;;;;2.97;1.63;;;5.60;99.90;;;;;;5046305;28;20212;-65
2022/01/17 11:13:09;;;;;;;4.27;1.70;;;5.70;99.90;;;;;;5038416;28;20236;-69
2022/01/17 11:15:36;;;;;;;4.43;1.83;;;5.70;99.90;;;;;;5035089;28;20262;-64
2022/01/17 11:18:24;;;;;;;2.47;1.70;;;5.70;99.90;;;;;;5038649;28;20192;-63
2022/01/17 11:20:53;;;;;;;2.43;1.47;;;5.80;99.90;;;;;;5036616;28;20623;-62
2022/01/17 11:23:22;;;;;;;4.27;1.60;;;5.80;99.90;;;;;;5033078;28;20223;-64
2022/01/17 11:25:53;;;;;;;6.07;2.30;;;5.80;99.90;;;;;;5034338;28;20178;-65
2022/01/17 11:28:23;;;;;;;5.20;1.60;;;5.80;99.90;;;;;;5033197;28;20185;-70
2022/01/17 11:30:51;;;;;;;3.53;1.97;;;5.80;99.90;;;;;;5032249;28;20213;-63
2022/01/17 11:33:17;;;;;;;3.00;1.67;;;5.80;99.90;;;;;;5034734;28;20274;-64
2022/01/17 11:35:45;;;;;;;5.33;1.70;;;5.80;99.90;;;;;;5040446;28;20760;-67
2022/01/17 11:38:15;;;;;;;1.90;1.50;;;5.80;99.90;;;;;;5030858;28;20187;-63
2022/01/17 11:40:42;;;;;;;6.93;1.90;;;5.70;99.90;;;;;;5030501;28;20200;-62
2022/01/17 11:43:35;;;;;;;2.47;1.80;;;5.80;99.90;;;;;;5031092;28;20555;-65
2022/01/17 11:46:18;;;;;;;1.97;1.50;;;5.80;99.90;;;;;;5031409;28;20191;-62
2022/01/17 11:48:56;;;;;;;5.63;1.70;;;5.80;99.90;;;;;;5033249;28;20569;-62
2022/01/17 11:51:22;;;;;;;5.83;2.00;;;5.90;99.90;;;;;;5030887;28;20547;-62
2022/01/17 11:53:57;;;;;;;2.50;1.70;;;5.80;99.90;;;;;;5032308;28;20184;-63
2022/01/17 11:56:43;;;;;;;3.83;1.80;;;5.80;99.90;;;;;;5032455;28;20216;-63
2022/01/17 11:59:34;;;;;;;6.80;2.00;;;5.80;99.90;;;;;;5037721;28;20246;-65
2022/01/17 12:02:20;;;;;;;3.37;1.60;;;5.80;99.90;;;;;;5038532;28;20628;-61
2022/01/17 12:05:11;;;;;;;3.33;1.60;;;5.80;99.90;;;;;;5033288;28;20716;-68
2022/01/17 12:07:43;;;;;;;4.03;2.20;;;5.70;99.90;;;;;;5014452;28;20198;-64
2022/01/17 12:10:13;;;;;;;2.80;1.87;;;5.80;99.90;;;;;;5029017;28;20201;-63
2022/01/17 12:12:39;;;;;;;2.97;2.10;;;5.80;99.90;;;;;;5030021;28;20544;-63
2022/01/17 12:15:13;;;;;;;6.80;1.83;;;5.90;99.90;;;;;;5032389;28;20203;-70
2022/01/17 12:17:40;;;;;;;3.73;1.70;;;5.90;99.90;;;;;;5034956;28;20187;-63
2022/01/17 12:20:09;;;;;;;2.10;1.77;;;5.90;99.90;;;;;;5031857;28;20239;-63
2022/01/17 12:22:47;;;;;;;4.87;1.80;;;5.90;99.90;;;;;;5032516;28;20229;-67
2022/01/17 12:25:27;;;;;;;5.13;1.43;;;5.90;99.90;;;;;;5032163;28;20176;-66
2022/01/17 12:28:05;;;;;;;3.70;1.90;;;5.90;99.90;;;;;;5032592;28;20169;-63
2022/01/17 12:30:41;;;;;;;4.80;2.20;;;5.90;99.90;;;;;;5037417;28;20184;-62
2022/01/17 12:33:11;;;;;;;1.57;1.47;;;5.90;99.90;;;;;;5036580;28;20277;-66
2022/01/17 12:35:46;;;;;;;2.00;1.47;;;5.80;99.90;;;;;;5029962;28;20280;-66
2022/01/17 12:38:28;;;;;;;2.23;1.50;;;5.80;99.90;;;;;;5030852;28;20178;-67
2022/01/17 12:40:54;;;;;;;2.73;1.70;;;5.80;99.90;;;;;;5030527;28;20245;-62
2022/01/17 12:43:29;;;;;;;3.03;1.83;;;5.80;99.90;;;;;;5030423;28;20594;-64
2022/01/17 12:46:07;;;;;;;3.90;1.67;;;5.80;99.90;;;;;;5031558;28;20544;-64
2022/01/17 12:48:36;;;;;;;2.03;1.63;;;5.80;99.90;;;;;;5031055;28;20196;-62
2022/01/17 12:51:07;;;;;;;6.27;1.73;;;5.80;99.90;;;;;;5029590;28;20293;-62
2022/01/17 12:53:33;;;;;;;3.07;1.50;;;5.90;99.90;;;;;;5032080;28;20672;-62
2022/01/17 12:56:02;;;;;;;2.13;1.30;;;5.90;99.90;;;;;;5031625;28;20225;-64
2022/01/17 12:58:37;;;;;;;1.70;1.10;;;5.90;99.90;;;;;;5066982;28;20193;-63
2022/01/17 13:01:10;;;;;;;1.70;1.50;;;6.00;99.90;;;;;;5031350;28;20222;-63
2022/01/17 13:03:38;;;;;;;3.43;1.27;;;6.00;99.90;;;;;;5030761;28;20216;-64
2022/01/17 13:06:25;;;;;;;4.73;1.60;;;5.60;99.90;;;;;;5032699;28;20211;-64
2022/01/17 13:08:55;;;;;;;5.93;1.13;;;4.90;99.90;;;;;;5033938;28;20291;-62
2022/01/17 13:11:23;;;;;;;2.47;1.30;;;3.80;99.90;;;;;;5029812;28;20190;-65
2022/01/17 13:14:01;;;;;;;5.97;1.27;;;3.50;99.90;;;;;;5034538;28;20216;-61
2022/01/17 13:16:31;;;;;;;3.07;1.27;;;3.40;99.90;;;;;;5029461;28;20196;-64
2022/01/17 13:18:57;;;;;;;3.67;1.40;;;3.40;99.90;;;;;;5027427;28;20193;-67
2022/01/17 13:21:23;;;;;;;5.10;1.80;;;3.20;99.90;;;;;;5032991;28;20174;-63
2022/01/17 13:23:59;;;;;;;5.33;1.60;;;3.20;99.90;;;;;;5030923;28;20275;-64
2022/01/17 13:26:35;;;;;;;3.07;1.50;;;3.20;99.90;;;;;;5033350;28;20264;-64